Terminal Aerodrome Forecast
Issued by NWS

Home | Current Version | Previous Version | Text Only | Print | Product List | Glossary On
Versions: 1 2 3 4 5 6 7 8 9 10 11 12 13 14 15 16 17 18 19 20 21 22 23 24 25 26 27 28 29 30 31
000
FTAK31 PAFA 272323
TAFAGA
TAF
PAGA 272323Z 2800/2824 16010KT P6SM OVC020
     FM281300 13012KT 5SM -SHSN SCT025 OVC100
     FM281500 13015KT 1SM -SN SCT015 BKN025 OVC040=

USA.gov is the U.S. government's official web portal to all federal, state and local government web resources and services.